Time;durP1;ratioP1;P1;durP2;ratioP2;P2;SDS_P1;SDS_P2;PMS_P1;PMS_P2;Temp;Humidity;BMP_temperature;BMP_pressure;BME280_temperature;BME280_humidity;BME280_pressure;Samples;Min_cycle;Max_cycle;Signal;HPM_P1;HPM_P2
2022/12/20 00:01:16;;;;;;;1.87;1.77;;;18.80;34.10;;;;;;5015963;28;20529;-61
2022/12/20 00:03:43;;;;;;;1.70;1.60;;;18.80;34.20;;;;;;5018420;28;20573;-60
2022/12/20 00:06:09;;;;;;;1.63;1.53;;;18.80;34.20;;;;;;5013187;28;20449;-60
2022/12/20 00:08:36;;;;;;;1.70;1.60;;;18.80;34.20;;;;;;5012350;28;20456;-60
2022/12/20 00:11:05;;;;;;;1.70;1.60;;;18.80;34.10;;;;;;5012852;28;20516;-59
2022/12/20 00:13:31;;;;;;;1.60;1.50;;;18.80;34.20;;;;;;5015937;28;20458;-59
2022/12/20 00:16:15;;;;;;;2.53;1.57;;;18.80;34.20;;;;;;5009146;28;20434;-60
2022/12/20 00:18:40;;;;;;;1.50;1.40;;;18.80;34.20;;;;;;5016961;28;20487;-60
2022/12/20 00:21:08;;;;;;;1.60;1.50;;;18.80;34.20;;;;;;5015862;28;20524;-60
2022/12/20 00:23:35;;;;;;;1.57;1.47;;;18.80;34.20;;;;;;5015698;28;20750;-60
2022/12/20 00:26:09;;;;;;;1.40;1.30;;;18.80;34.20;;;;;;5015830;28;20775;-60
2022/12/20 00:28:35;;;;;;;1.50;1.40;;;18.80;34.20;;;;;;5018523;28;20839;-60
2022/12/20 00:31:02;;;;;;;1.43;1.33;;;18.80;34.20;;;;;;5017036;28;20478;-60
2022/12/20 00:33:28;;;;;;;1.50;1.40;;;18.80;34.20;;;;;;5016406;28;20450;-60
2022/12/20 00:35:55;;;;;;;1.93;1.83;;;18.80;34.20;;;;;;5017502;28;20427;-59
2022/12/20 00:38:22;;;;;;;1.57;1.47;;;18.80;34.20;;;;;;5015324;28;20670;-60
2022/12/20 00:40:57;;;;;;;1.63;1.53;;;18.80;34.20;;;;;;5014174;28;20910;-60
2022/12/20 00:43:22;;;;;;;1.60;1.40;;;18.80;34.30;;;;;;5016629;28;20449;-59
2022/12/20 00:45:48;;;;;;;1.50;1.40;;;18.80;34.20;;;;;;5013511;28;20423;-59
2022/12/20 00:48:13;;;;;;;2.50;1.63;;;18.80;34.30;;;;;;5016114;28;20597;-60
2022/12/20 00:50:39;;;;;;;1.33;1.23;;;18.80;34.30;;;;;;5016175;28;20215;-60
2022/12/20 00:53:08;;;;;;;1.53;1.43;;;18.80;34.20;;;;;;5015722;28;20356;-59
2022/12/20 00:55:34;;;;;;;1.40;1.30;;;18.80;34.30;;;;;;5018316;28;20341;-60
2022/12/20 00:57:59;;;;;;;1.77;1.67;;;18.80;34.30;;;;;;5012107;28;20423;-60
2022/12/20 01:00:25;;;;;;;1.37;1.27;;;18.80;34.30;;;;;;5018368;28;20222;-60
2022/12/20 01:02:50;;;;;;;1.40;1.30;;;18.80;34.30;;;;;;5015744;28;20628;-60
2022/12/20 01:05:16;;;;;;;1.90;1.40;;;18.80;34.30;;;;;;5017360;28;20246;-60
2022/12/20 01:07:41;;;;;;;1.70;1.60;;;18.80;34.30;;;;;;5019614;28;20215;-60
2022/12/20 01:10:07;;;;;;;1.40;1.30;;;18.80;34.30;;;;;;5020581;28;20234;-60
2022/12/20 01:12:33;;;;;;;1.37;1.27;;;18.80;34.30;;;;;;5019464;28;20234;-60
2022/12/20 01:14:58;;;;;;;1.73;1.63;;;18.80;34.30;;;;;;5017509;28;20436;-60
2022/12/20 01:17:24;;;;;;;1.40;1.30;;;18.80;34.30;;;;;;5014514;28;20666;-60
2022/12/20 01:19:49;;;;;;;1.70;1.43;;;18.80;34.30;;;;;;5020258;28;20217;-60
2022/12/20 01:22:15;;;;;;;1.30;1.20;;;18.80;34.40;;;;;;5018729;28;20230;-60
2022/12/20 01:24:40;;;;;;;1.60;1.50;;;18.80;34.30;;;;;;5016693;28;20630;-59
2022/12/20 01:27:06;;;;;;;1.40;1.30;;;18.80;34.30;;;;;;5016539;28;20210;-60
2022/12/20 01:29:31;;;;;;;3.17;1.40;;;18.80;34.40;;;;;;5022648;28;20215;-60
2022/12/20 01:31:57;;;;;;;1.80;1.37;;;18.80;34.40;;;;;;5017489;28;20719;-60
2022/12/20 01:34:22;;;;;;;1.27;1.17;;;18.80;34.40;;;;;;5019960;28;20675;-61
2022/12/20 01:36:48;;;;;;;1.50;1.40;;;18.80;34.40;;;;;;5019729;28;20256;-60
2022/12/20 01:39:15;;;;;;;1.50;1.40;;;18.80;34.40;;;;;;5017409;28;20285;-60
2022/12/20 01:41:44;;;;;;;1.60;1.50;;;18.80;34.40;;;;;;5015840;28;20230;-60
2022/12/20 01:44:15;;;;;;;1.40;1.30;;;18.80;34.30;;;;;;5014219;28;20464;-61
2022/12/20 01:46:41;;;;;;;1.43;1.33;;;18.80;34.40;;;;;;5017688;28;20856;-60
2022/12/20 01:49:13;;;;;;;1.30;1.20;;;18.80;34.40;;;;;;5019655;28;20452;-60
2022/12/20 01:51:45;;;;;;;1.60;1.50;;;18.80;34.40;;;;;;5019224;28;20782;-60
2022/12/20 01:54:18;;;;;;;1.50;1.30;;;18.80;34.40;;;;;;5017797;28;20438;-60
2022/12/20 01:56:48;;;;;;;1.30;1.20;;;18.80;34.40;;;;;;5015952;28;20564;-60
2022/12/20 01:59:14;;;;;;;1.33;1.23;;;18.80;34.50;;;;;;5020219;28;20475;-60
2022/12/20 02:01:41;;;;;;;1.40;1.30;;;18.80;34.40;;;;;;5016375;28;20447;-60
2022/12/20 02:04:07;;;;;;;1.40;1.30;;;18.80;34.40;;;;;;5022602;28;20223;-60
2022/12/20 02:06:33;;;;;;;1.33;1.23;;;18.80;34.50;;;;;;5017578;28;20456;-60
2022/12/20 02:09:00;;;;;;;1.43;1.33;;;18.80;34.50;;;;;;5015341;28;20219;-60
2022/12/20 02:11:44;;;;;;;1.50;1.40;;;18.80;34.40;;;;;;5018697;28;20238;-61
2022/12/20 02:14:27;;;;;;;1.37;1.27;;;18.80;34.40;;;;;;5018208;28;20504;-60
2022/12/20 02:17:11;;;;;;;1.30;1.20;;;18.80;34.40;;;;;;5019621;28;20447;-60
2022/12/20 02:19:57;;;;;;;1.27;1.17;;;18.80;34.50;;;;;;5019075;28;20478;-60
2022/12/20 02:22:38;;;;;;;1.27;1.17;;;18.80;34.50;;;;;;5018828;28;20431;-60
2022/12/20 02:25:37;;;;;;;1.40;1.30;;;18.80;34.50;;;;;;5016768;28;21423;-60
2022/12/20 02:28:39;;;;;;;1.40;1.10;;;18.80;34.50;;;;;;5016172;28;20433;-60
2022/12/20 02:31:10;;;;;;;1.40;1.30;;;18.80;34.50;;;;;;4983560;28;20955;-60
2022/12/20 02:33:38;;;;;;;1.43;1.33;;;18.80;34.50;;;;;;5018633;28;20516;-59
2022/12/20 02:36:03;;;;;;;1.50;1.40;;;18.80;34.50;;;;;;5015730;28;20776;-60
2022/12/20 02:38:32;;;;;;;1.40;1.30;;;18.70;34.50;;;;;;5019117;28;20446;-60
2022/12/20 02:41:13;;;;;;;1.20;1.10;;;18.70;34.40;;;;;;5017136;28;20472;-60
2022/12/20 02:46:27;;;;;;;1.33;1.23;;;18.70;34.50;;;;;;5016529;28;20425;-60
2022/12/20 02:48:59;;;;;;;1.10;1.00;;;18.80;34.50;;;;;;5016566;28;20456;-60
2022/12/20 02:51:26;;;;;;;1.13;1.03;;;18.80;34.50;;;;;;5017039;28;20522;-60
2022/12/20 02:53:52;;;;;;;1.17;1.07;;;18.70;34.50;;;;;;5015174;28;21049;-59
2022/12/20 02:56:45;;;;;;;1.40;1.30;;;18.70;34.50;;;;;;5014401;28;20444;-60
2022/12/20 02:59:16;;;;;;;1.20;1.10;;;18.80;34.50;;;;;;5016224;28;20242;-59
2022/12/20 03:01:49;;;;;;;1.43;1.33;;;18.70;34.50;;;;;;5017215;28;20570;-60
2022/12/20 03:04:17;;;;;;;1.23;1.13;;;18.80;34.60;;;;;;5016198;28;21081;-60
2022/12/20 03:06:58;;;;;;;1.20;1.10;;;18.80;34.60;;;;;;5016004;28;20579;-61
2022/12/20 03:09:24;;;;;;;1.43;1.33;;;18.80;34.60;;;;;;5015498;28;21007;-59
2022/12/20 03:11:50;;;;;;;1.33;1.23;;;18.80;34.60;;;;;;5013864;28;20845;-60
2022/12/20 03:14:16;;;;;;;1.30;1.20;;;18.80;34.60;;;;;;5015499;28;20702;-60
2022/12/20 03:16:41;;;;;;;0.97;0.97;;;18.80;34.60;;;;;;5016192;28;20494;-60
2022/12/20 03:19:07;;;;;;;1.20;1.10;;;18.80;34.60;;;;;;5014991;28;20223;-60
2022/12/20 03:21:32;;;;;;;1.20;1.10;;;18.80;34.60;;;;;;5013048;28;20671;-60
2022/12/20 03:23:58;;;;;;;1.37;1.27;;;18.80;34.60;;;;;;5015655;28;20370;-60
2022/12/20 03:26:23;;;;;;;1.10;1.00;;;18.80;34.60;;;;;;5015856;28;20700;-60
2022/12/20 03:28:49;;;;;;;1.23;1.13;;;18.80;34.70;;;;;;5016866;28;20219;-59
2022/12/20 03:31:14;;;;;;;1.20;1.10;;;18.80;34.60;;;;;;5013374;28;20218;-60
2022/12/20 03:33:40;;;;;;;1.17;1.07;;;18.80;34.60;;;;;;5017443;28;21907;-61
2022/12/20 03:36:06;;;;;;;1.20;1.10;;;18.80;34.70;;;;;;5017641;28;20230;-60
2022/12/20 03:38:31;;;;;;;1.30;1.20;;;18.80;34.70;;;;;;5016252;28;20217;-60
2022/12/20 03:40:57;;;;;;;1.20;1.10;;;18.80;34.70;;;;;;5016533;28;20222;-60
2022/12/20 03:43:22;;;;;;;1.77;1.30;;;18.80;34.70;;;;;;5015982;28;20674;-60
2022/12/20 03:45:48;;;;;;;1.17;1.07;;;18.80;34.60;;;;;;5015277;28;20230;-60
2022/12/20 03:48:14;;;;;;;1.30;1.20;;;18.80;34.70;;;;;;5018079;28;20229;-60
2022/12/20 03:50:40;;;;;;;1.40;1.30;;;18.80;34.70;;;;;;5015908;28;20218;-59
2022/12/20 03:53:06;;;;;;;1.10;1.00;;;18.80;34.70;;;;;;5013421;28;20450;-60
2022/12/20 03:55:31;;;;;;;1.40;1.30;;;18.80;34.60;;;;;;5011498;28;20925;-60
2022/12/20 03:57:57;;;;;;;1.23;1.13;;;18.80;34.60;;;;;;5017462;28;20229;-60
2022/12/20 04:00:22;;;;;;;1.20;1.10;;;18.80;34.70;;;;;;5016833;28;20214;-60
2022/12/20 04:02:48;;;;;;;1.60;1.50;;;18.80;34.70;;;;;;5018452;28;20222;-60
2022/12/20 04:05:14;;;;;;;1.27;1.10;;;18.80;34.60;;;;;;5019969;28;20682;-60
2022/12/20 04:07:40;;;;;;;1.30;1.20;;;18.80;34.70;;;;;;5018215;28;20225;-60
2022/12/20 04:10:06;;;;;;;1.20;1.10;;;18.80;35.50;;;;;;5017605;28;20446;-60
2022/12/20 04:12:32;;;;;;;1.37;1.27;;;18.80;34.60;;;;;;5016741;28;20219;-60
2022/12/20 04:14:57;;;;;;;1.33;1.23;;;18.80;34.60;;;;;;5013011;28;20942;-60
2022/12/20 04:17:23;;;;;;;1.30;1.20;;;18.80;34.70;;;;;;5017715;28;20234;-60
2022/12/20 04:19:48;;;;;;;1.30;1.20;;;18.80;34.70;;;;;;5018098;28;20346;-60
2022/12/20 04:22:14;;;;;;;1.33;1.23;;;18.80;34.70;;;;;;5018495;28;20273;-60
2022/12/20 04:24:39;;;;;;;1.20;1.10;;;18.80;34.70;;;;;;5017370;28;20686;-60
2022/12/20 04:27:05;;;;;;;1.30;1.20;;;18.80;34.70;;;;;;5017319;28;20689;-60
2022/12/20 04:29:30;;;;;;;1.20;1.10;;;18.80;34.80;;;;;;5017225;28;20223;-60
2022/12/20 04:31:56;;;;;;;1.30;1.20;;;18.80;34.80;;;;;;5016948;28;20315;-60
2022/12/20 04:34:22;;;;;;;1.27;1.17;;;18.80;34.80;;;;;;5017442;28;20254;-60
2022/12/20 04:36:47;;;;;;;1.20;1.10;;;18.80;34.70;;;;;;5019301;28;20218;-60
2022/12/20 04:39:13;;;;;;;3.50;1.10;;;18.80;34.80;;;;;;5015114;28;20234;-60
2022/12/20 04:41:38;;;;;;;1.17;1.07;;;18.80;34.70;;;;;;5020400;28;20312;-60
2022/12/20 04:44:04;;;;;;;1.20;1.10;;;18.80;34.80;;;;;;5017886;28;20229;-60
2022/12/20 04:46:29;;;;;;;1.40;1.10;;;18.80;34.80;;;;;;5017425;28;20222;-60
2022/12/20 04:48:55;;;;;;;1.40;1.30;;;18.80;34.80;;;;;;5020709;28;20222;-60
2022/12/20 04:51:20;;;;;;;1.20;1.10;;;18.80;34.80;;;;;;5020807;28;20215;-59
2022/12/20 04:53:49;;;;;;;1.13;1.03;;;18.80;34.70;;;;;;5017633;28;20235;-61
2022/12/20 04:56:23;;;;;;;1.20;1.10;;;18.80;34.80;;;;;;5017334;28;20211;-60
2022/12/20 04:58:50;;;;;;;1.30;1.20;;;18.80;34.70;;;;;;5024498;28;20437;-60
2022/12/20 05:01:16;;;;;;;1.30;1.20;;;18.80;34.70;;;;;;5016446;28;20456;-60
2022/12/20 05:03:42;;;;;;;1.20;1.10;;;18.90;34.80;;;;;;5015068;28;20514;-60
2022/12/20 05:06:09;;;;;;;1.40;1.30;;;18.90;34.80;;;;;;5018966;28;20505;-60
2022/12/20 05:08:35;;;;;;;1.23;1.13;;;18.90;34.70;;;;;;5018440;28;20521;-60
2022/12/20 05:11:00;;;;;;;1.20;1.10;;;18.90;34.80;;;;;;5023322;28;20434;-60
2022/12/20 05:13:26;;;;;;;1.27;1.17;;;18.90;34.80;;;;;;5018653;28;20812;-60
2022/12/20 05:15:53;;;;;;;1.10;1.00;;;18.90;34.70;;;;;;5023085;28;20284;-60
2022/12/20 05:18:19;;;;;;;1.20;1.10;;;18.90;34.80;;;;;;5019929;28;20789;-60
2022/12/20 05:20:46;;;;;;;1.30;1.20;;;18.90;34.70;;;;;;5014708;28;20463;-60
2022/12/20 05:28:40;;;;;;;1.30;1.20;;;18.90;34.70;;;;;;5014207;28;20496;-61
2022/12/20 05:31:06;;;;;;;1.17;1.07;;;18.90;34.70;;;;;;5016465;28;20482;-60
2022/12/20 05:33:31;;;;;;;1.40;1.03;;;19.00;34.70;;;;;;5017170;28;20241;-61
2022/12/20 05:35:57;;;;;;;1.17;1.07;;;19.00;34.70;;;;;;5012840;28;20750;-59
2022/12/20 05:38:23;;;;;;;1.27;1.17;;;19.00;34.60;;;;;;5015118;28;20218;-60
2022/12/20 05:40:50;;;;;;;1.30;1.20;;;19.00;34.60;;;;;;5017371;28;20718;-61
2022/12/20 05:43:17;;;;;;;1.37;1.27;;;19.00;34.60;;;;;;5014875;28;20459;-60
2022/12/20 05:45:50;;;;;;;4.63;1.30;;;19.00;34.60;;;;;;5007758;28;20463;-63
2022/12/20 05:48:17;;;;;;;1.83;1.20;;;19.00;34.60;;;;;;5008511;28;20471;-62
2022/12/20 05:50:43;;;;;;;1.60;1.50;;;19.00;34.50;;;;;;5016533;28;20457;-63
2022/12/20 05:53:13;;;;;;;1.30;1.20;;;19.10;34.60;;;;;;5007887;28;20779;-63
2022/12/20 05:55:51;;;;;;;1.30;1.20;;;19.00;34.50;;;;;;5009020;28;20525;-63
2022/12/20 05:58:17;;;;;;;1.00;1.00;;;19.10;34.60;;;;;;5008507;28;20447;-62
2022/12/20 06:00:43;;;;;;;1.20;1.10;;;19.00;34.60;;;;;;5011562;28;20464;-63
2022/12/20 06:03:10;;;;;;;2.40;1.30;;;19.00;34.60;;;;;;5014474;28;21215;-62
2022/12/20 06:05:37;;;;;;;1.30;1.20;;;19.00;34.60;;;;;;5015842;28;20519;-61
2022/12/20 06:08:04;;;;;;;1.03;0.93;;;19.00;34.60;;;;;;5016120;28;20437;-63
2022/12/20 06:10:30;;;;;;;1.20;1.03;;;19.00;34.70;;;;;;5012592;28;20446;-62
2022/12/20 06:12:55;;;;;;;1.30;1.20;;;19.00;34.60;;;;;;5015492;28;20450;-63
2022/12/20 06:15:21;;;;;;;1.10;1.00;;;19.00;34.70;;;;;;5013286;28;20431;-61
2022/12/20 06:17:46;;;;;;;1.17;1.00;;;19.00;34.70;;;;;;5017221;28;20289;-62
2022/12/20 06:20:12;;;;;;;1.20;1.10;;;19.00;34.70;;;;;;5014444;28;20227;-62
2022/12/20 06:22:38;;;;;;;1.20;1.10;;;19.00;34.70;;;;;;5012006;28;20765;-62
2022/12/20 06:25:04;;;;;;;1.03;0.93;;;19.00;34.70;;;;;;5003470;28;20237;-62
2022/12/20 06:27:30;;;;;;;1.30;1.20;;;19.00;34.80;;;;;;4996813;28;20237;-62
2022/12/20 06:29:55;;;;;;;1.30;1.20;;;19.00;34.80;;;;;;5003674;28;20435;-62
2022/12/20 06:32:21;;;;;;;1.23;1.13;;;19.00;34.80;;;;;;5006151;28;20750;-62
2022/12/20 06:34:46;;;;;;;1.40;1.30;;;19.00;34.80;;;;;;5009719;28;20692;-63
2022/12/20 06:37:12;;;;;;;1.43;1.27;;;19.00;34.80;;;;;;5008840;28;20289;-62
2022/12/20 06:39:38;;;;;;;1.20;1.10;;;19.00;34.80;;;;;;5012006;28;20222;-62
2022/12/20 06:42:03;;;;;;;1.20;1.10;;;19.00;34.80;;;;;;5011076;28;20222;-62
2022/12/20 06:44:29;;;;;;;2.30;1.50;;;19.00;34.70;;;;;;5016275;28;20667;-62
2022/12/20 06:46:54;;;;;;;1.33;1.23;;;19.00;34.80;;;;;;5015700;28;20654;-62
2022/12/20 06:49:21;;;;;;;1.30;1.20;;;19.00;34.80;;;;;;5015004;28;20238;-62
2022/12/20 06:51:47;;;;;;;1.30;1.20;;;19.00;34.80;;;;;;5017335;28;20239;-62
2022/12/20 06:54:13;;;;;;;1.40;1.30;;;19.00;34.80;;;;;;5014989;28;20635;-63
2022/12/20 06:56:38;;;;;;;1.30;1.20;;;19.00;34.80;;;;;;5010245;28;20465;-62
2022/12/20 06:59:05;;;;;;;1.20;1.10;;;19.00;34.80;;;;;;5009128;28;20694;-63
2022/12/20 07:01:30;;;;;;;1.30;1.20;;;19.00;34.80;;;;;;5013701;28;20617;-62
2022/12/20 07:03:56;;;;;;;2.87;1.57;;;19.00;35.60;;;;;;5014463;28;20468;-62
2022/12/20 07:06:21;;;;;;;1.30;1.20;;;19.00;34.80;;;;;;5014320;28;22011;-62
2022/12/20 07:08:47;;;;;;;1.50;1.40;;;19.00;34.90;;;;;;5011961;28;20234;-62
2022/12/20 07:11:12;;;;;;;1.20;1.10;;;19.00;34.90;;;;;;5007314;28;20266;-63
2022/12/20 07:13:38;;;;;;;1.57;1.40;;;19.00;34.90;;;;;;5013936;28;20706;-62
2022/12/20 07:16:05;;;;;;;1.40;1.30;;;19.00;34.90;;;;;;5011393;28;20239;-62
2022/12/20 07:18:31;;;;;;;1.83;1.73;;;19.00;34.90;;;;;;5011292;28;20228;-62
2022/12/20 07:21:04;;;;;;;1.20;1.10;;;19.00;34.90;;;;;;5016177;28;20422;-62
2022/12/20 07:23:30;;;;;;;1.30;1.20;;;19.00;35.00;;;;;;5017662;28;20441;-62
2022/12/20 07:25:58;;;;;;;1.47;1.37;;;19.00;34.90;;;;;;5015656;28;20430;-61
2022/12/20 07:28:24;;;;;;;1.43;1.33;;;19.00;34.90;;;;;;5018006;28;20431;-61
2022/12/20 07:30:50;;;;;;;1.10;1.07;;;19.00;35.00;;;;;;5015719;28;20433;-62
2022/12/20 07:33:16;;;;;;;1.20;1.10;;;19.00;34.90;;;;;;5015501;28;20442;-61
2022/12/20 07:35:42;;;;;;;1.40;1.30;;;19.00;34.90;;;;;;5013078;28;20218;-61
2022/12/20 07:38:08;;;;;;;1.50;1.40;;;19.00;35.00;;;;;;5009412;28;20713;-62
2022/12/20 07:40:33;;;;;;;1.60;1.50;;;19.00;34.90;;;;;;5010643;28;20941;-62
2022/12/20 07:42:59;;;;;;;1.10;1.00;;;19.00;35.00;;;;;;5008660;28;20314;-62
2022/12/20 07:45:25;;;;;;;1.20;1.10;;;19.00;35.00;;;;;;5011240;28;20273;-62
2022/12/20 07:47:50;;;;;;;1.20;1.10;;;19.00;35.00;;;;;;5019620;28;20245;-63
2022/12/20 07:50:16;;;;;;;1.93;1.30;;;19.00;35.10;;;;;;5014262;28;20231;-61
2022/12/20 07:52:44;;;;;;;1.67;1.57;;;19.00;35.00;;;;;;5017133;28;20217;-62
2022/12/20 07:55:11;;;;;;;1.30;1.20;;;19.00;35.00;;;;;;5015361;28;20230;-62
2022/12/20 07:57:43;;;;;;;1.60;1.33;;;19.00;35.10;;;;;;5010337;28;20470;-62
2022/12/20 08:00:09;;;;;;;2.43;1.30;;;19.00;35.10;;;;;;5013365;28;20949;-62
2022/12/20 08:02:44;;;;;;;1.27;1.17;;;19.00;35.00;;;;;;5002820;28;20502;-60
2022/12/20 08:05:10;;;;;;;1.70;1.13;;;19.00;35.10;;;;;;5010472;28;20475;-62
2022/12/20 08:07:39;;;;;;;1.30;1.20;;;19.00;35.10;;;;;;5002523;28;20438;-62
2022/12/20 08:10:07;;;;;;;1.43;1.33;;;19.00;35.10;;;;;;5008781;28;20476;-62
2022/12/20 08:12:32;;;;;;;1.10;1.00;;;19.00;35.10;;;;;;5004418;28;20488;-62
2022/12/20 08:14:58;;;;;;;1.70;1.60;;;19.00;35.10;;;;;;5010940;28;20944;-62
2022/12/20 08:17:24;;;;;;;2.13;1.37;;;19.00;35.10;;;;;;5014422;28;20613;-61
2022/12/20 08:19:50;;;;;;;1.47;1.37;;;19.00;35.20;;;;;;5008542;28;20301;-62
2022/12/20 08:22:18;;;;;;;1.40;1.30;;;19.00;35.20;;;;;;5007239;28;20430;-62
2022/12/20 08:24:44;;;;;;;1.50;1.40;;;19.00;35.10;;;;;;4989384;28;20465;-62
2022/12/20 08:27:10;;;;;;;1.20;1.10;;;19.00;35.20;;;;;;5001239;28;20439;-62
2022/12/20 08:29:35;;;;;;;1.17;1.07;;;19.00;35.20;;;;;;5014379;28;20280;-61
2022/12/20 08:32:01;;;;;;;1.93;1.20;;;19.00;35.20;;;;;;5013929;28;20215;-61
2022/12/20 08:34:26;;;;;;;1.23;1.13;;;19.00;35.20;;;;;;5015010;28;20241;-62
2022/12/20 08:36:52;;;;;;;1.40;1.30;;;19.00;35.20;;;;;;5012731;28;20222;-62
2022/12/20 08:39:17;;;;;;;1.30;1.20;;;19.00;36.00;;;;;;5010773;28;20273;-62
2022/12/20 08:41:43;;;;;;;1.40;1.30;;;19.00;35.20;;;;;;5008492;28;20300;-63
2022/12/20 08:44:09;;;;;;;1.70;1.60;;;19.00;35.20;;;;;;5010526;28;20693;-62
2022/12/20 08:46:35;;;;;;;1.20;1.10;;;19.00;35.30;;;;;;5010491;28;20778;-63
2022/12/20 08:49:02;;;;;;;1.50;1.40;;;18.90;35.10;;;;;;5013949;28;20941;-63
2022/12/20 08:51:28;;;;;;;1.40;1.30;;;18.90;35.10;;;;;;5007062;28;20491;-63
2022/12/20 08:53:53;;;;;;;1.23;1.13;;;18.90;35.20;;;;;;5012994;28;20555;-62
2022/12/20 08:56:19;;;;;;;1.23;1.13;;;19.00;35.30;;;;;;5006772;28;20666;-62
2022/12/20 08:58:45;;;;;;;1.37;1.27;;;18.90;35.20;;;;;;5010689;28;20276;-63
2022/12/20 09:01:13;;;;;;;1.37;1.27;;;19.00;35.30;;;;;;5011617;28;20222;-63
2022/12/20 09:03:40;;;;;;;1.23;1.13;;;18.90;35.10;;;;;;5004492;28;20515;-62
2022/12/20 09:06:17;;;;;;;1.30;1.20;;;19.00;35.30;;;;;;5004499;28;20446;-62
2022/12/20 09:08:43;;;;;;;1.70;1.23;;;19.00;36.00;;;;;;5011331;28;20538;-62
2022/12/20 09:11:11;;;;;;;1.30;1.20;;;18.90;35.20;;;;;;5012887;28;20562;-62
2022/12/20 09:13:37;;;;;;;1.73;1.63;;;18.90;35.20;;;;;;5009666;28;20239;-62
2022/12/20 09:16:06;;;;;;;1.20;1.10;;;18.90;35.20;;;;;;5009283;28;21019;-62
2022/12/20 09:18:32;;;;;;;1.10;1.00;;;18.90;35.20;;;;;;5009916;28;20456;-62
2022/12/20 09:21:02;;;;;;;1.50;1.40;;;18.90;35.20;;;;;;4993788;28;20430;-62
2022/12/20 09:23:29;;;;;;;1.30;1.20;;;18.90;35.20;;;;;;5007291;28;20516;-62
2022/12/20 09:25:55;;;;;;;1.40;1.30;;;18.90;35.30;;;;;;5008831;28;20431;-63
2022/12/20 09:28:21;;;;;;;1.30;1.20;;;18.90;35.30;;;;;;5010569;28;20453;-62
2022/12/20 09:30:47;;;;;;;1.63;1.20;;;18.90;35.40;;;;;;5009714;28;20916;-62
2022/12/20 09:33:12;;;;;;;1.80;1.70;;;18.90;35.30;;;;;;4997630;28;20556;-63
2022/12/20 09:35:45;;;;;;;1.33;1.23;;;18.90;35.30;;;;;;5001554;28;20221;-63
2022/12/20 09:38:12;;;;;;;1.30;1.20;;;18.90;35.30;;;;;;5008898;28;20554;-62
2022/12/20 09:40:37;;;;;;;1.37;1.27;;;18.90;35.30;;;;;;5002649;28;20434;-62
2022/12/20 09:43:04;;;;;;;1.30;1.20;;;18.90;35.30;;;;;;5005573;28;20466;-62
2022/12/20 09:45:34;;;;;;;1.37;1.27;;;18.90;35.30;;;;;;5006529;28;20226;-63
2022/12/20 09:48:00;;;;;;;1.30;1.10;;;18.90;35.30;;;;;;5004661;28;20464;-62
2022/12/20 09:50:45;;;;;;;1.20;1.10;;;18.90;35.30;;;;;;5010235;28;20447;-62
2022/12/20 09:53:31;;;;;;;1.40;1.30;;;18.90;35.30;;;;;;5006686;28;20241;-62
2022/12/20 09:56:04;;;;;;;1.17;1.07;;;18.90;36.10;;;;;;5006551;28;20442;-62
2022/12/20 09:58:46;;;;;;;2.10;1.40;;;18.90;35.40;;;;;;5008757;28;21336;-62
2022/12/20 10:01:19;;;;;;;2.43;1.30;;;18.90;35.50;;;;;;5007780;28;20539;-62
2022/12/20 10:03:44;;;;;;;1.40;1.30;;;18.90;35.30;;;;;;5007764;28;20432;-62
2022/12/20 10:06:32;;;;;;;1.40;1.30;;;18.90;35.40;;;;;;5008759;28;21052;-62
2022/12/20 10:09:04;;;;;;;1.30;1.20;;;18.90;35.50;;;;;;5005014;28;20223;-62
2022/12/20 10:11:41;;;;;;;1.30;1.20;;;18.90;35.50;;;;;;5007350;28;20755;-62
2022/12/20 10:14:41;;;;;;;1.30;1.20;;;18.90;35.50;;;;;;5006351;28;20442;-62
2022/12/20 10:17:16;;;;;;;1.40;1.30;;;18.90;35.40;;;;;;5003414;28;20431;-62
2022/12/20 10:20:03;;;;;;;1.40;1.30;;;18.90;35.50;;;;;;5006438;28;20490;-62
2022/12/20 10:22:37;;;;;;;1.30;1.20;;;18.90;35.50;;;;;;5007064;28;20542;-62
2022/12/20 10:25:12;;;;;;;1.33;1.23;;;18.90;35.50;;;;;;5004065;28;20482;-62
2022/12/20 10:27:42;;;;;;;1.20;1.10;;;18.90;35.50;;;;;;5004170;28;20437;-62
2022/12/20 10:30:16;;;;;;;1.40;1.30;;;18.90;35.50;;;;;;5003626;28;20508;-62
2022/12/20 10:32:44;;;;;;;1.80;1.20;;;18.90;35.50;;;;;;5006806;28;20575;-62
2022/12/20 10:35:10;;;;;;;3.00;1.30;;;18.90;35.60;;;;;;5006157;28;20449;-62
2022/12/20 10:37:37;;;;;;;1.40;1.30;;;18.90;35.50;;;;;;5006542;28;20438;-62
2022/12/20 10:40:03;;;;;;;1.30;1.20;;;18.90;35.60;;;;;;5005475;28;20234;-62
2022/12/20 10:42:38;;;;;;;1.10;1.00;;;18.90;35.60;;;;;;5008071;28;20448;-62
2022/12/20 10:45:29;;;;;;;1.50;1.40;;;18.90;35.50;;;;;;5006501;28;20437;-62
2022/12/20 10:47:59;;;;;;;1.10;1.00;;;18.90;35.60;;;;;;4992631;28;20572;-63
2022/12/20 10:50:25;;;;;;;1.20;1.10;;;18.90;35.60;;;;;;5007425;28;20583;-62
2022/12/20 10:53:09;;;;;;;1.30;1.20;;;18.90;35.60;;;;;;5005811;28;20543;-62
2022/12/20 10:55:41;;;;;;;1.50;1.40;;;18.90;35.60;;;;;;5004474;28;20439;-60
2022/12/20 10:58:25;;;;;;;1.27;1.17;;;18.90;35.60;;;;;;5002312;28;20443;-63
2022/12/20 11:01:16;;;;;;;1.10;1.00;;;18.90;35.60;;;;;;5007413;28;20466;-62
2022/12/20 11:04:19;;;;;;;1.10;1.00;;;18.90;35.60;;;;;;5004531;28;20472;-62
2022/12/20 11:06:45;;;;;;;1.23;1.13;;;18.90;35.60;;;;;;5004458;28;20455;-62
2022/12/20 11:09:22;;;;;;;1.30;1.20;;;18.90;35.70;;;;;;4996231;28;20426;-62
2022/12/20 11:11:59;;;;;;;1.20;1.10;;;18.90;35.70;;;;;;5003204;28;20769;-62
2022/12/20 11:14:25;;;;;;;1.20;1.10;;;18.90;35.70;;;;;;4990582;28;20492;-63
2022/12/20 11:16:53;;;;;;;1.43;1.33;;;18.90;36.50;;;;;;5002519;28;21019;-62
2022/12/20 11:19:37;;;;;;;1.40;1.30;;;18.90;35.70;;;;;;5006734;28;20434;-63
2022/12/20 11:22:40;;;;;;;1.37;1.10;;;18.90;35.70;;;;;;5006434;28;20434;-62
2022/12/20 11:25:30;;;;;;;1.37;1.27;;;18.90;35.60;;;;;;4988017;28;20554;-61
2022/12/20 11:28:28;;;;;;;1.30;1.20;;;18.90;35.70;;;;;;5000977;28;20518;-62
2022/12/20 11:31:10;;;;;;;1.40;1.30;;;18.90;35.70;;;;;;5001834;28;22248;-60
2022/12/20 11:33:49;;;;;;;1.20;1.10;;;18.90;35.70;;;;;;4999868;28;20461;-63
2022/12/20 11:36:21;;;;;;;1.40;1.30;;;18.90;35.70;;;;;;5004850;28;20557;-63
2022/12/20 11:39:13;;;;;;;1.30;1.20;;;18.90;35.70;;;;;;4995884;28;21792;-63
2022/12/20 11:42:03;;;;;;;1.20;1.10;;;18.90;35.70;;;;;;4998192;28;21033;-63
2022/12/20 11:44:52;;;;;;;1.27;1.17;;;18.90;35.70;;;;;;5004571;28;20450;-63
2022/12/20 11:47:50;;;;;;;1.40;1.30;;;18.90;35.70;;;;;;5002379;28;20448;-63
2022/12/20 11:50:28;;;;;;;1.40;1.30;;;18.90;35.70;;;;;;5003873;28;20423;-62
2022/12/20 11:53:01;;;;;;;1.57;1.30;;;18.90;35.70;;;;;;5004855;28;20947;-62
2022/12/20 11:55:30;;;;;;;1.40;1.30;;;18.90;35.80;;;;;;5000586;28;20434;-62
2022/12/20 11:58:08;;;;;;;1.20;1.10;;;18.90;35.80;;;;;;4998790;28;20464;-62
2022/12/20 12:00:35;;;;;;;1.33;1.23;;;18.90;35.80;;;;;;4999225;28;20476;-63
2022/12/20 12:03:33;;;;;;;1.37;1.27;;;18.90;35.80;;;;;;5003160;28;20448;-62
2022/12/20 12:06:10;;;;;;;1.30;1.20;;;18.90;35.80;;;;;;5005059;28;20431;-62
2022/12/20 12:09:16;;;;;;;1.20;1.10;;;18.90;35.80;;;;;;5005985;28;20484;-62
2022/12/20 12:12:21;;;;;;;1.40;1.30;;;18.90;35.80;;;;;;5001690;28;20446;-63
2022/12/20 12:15:21;;;;;;;1.20;1.10;;;18.90;35.80;;;;;;4995241;28;20531;-62
2022/12/20 12:18:21;;;;;;;1.30;1.20;;;18.90;35.80;;;;;;5004640;28;20448;-62
2022/12/20 12:21:04;;;;;;;1.37;1.27;;;18.80;35.70;;;;;;4970028;28;20999;-62
2022/12/20 12:24:07;;;;;;;1.30;1.20;;;18.80;35.70;;;;;;5006566;28;20449;-62
2022/12/20 12:26:39;;;;;;;1.30;1.20;;;18.80;35.70;;;;;;4999975;28;20440;-62
2022/12/20 12:29:08;;;;;;;1.60;1.50;;;18.80;35.70;;;;;;5004017;28;20556;-62
2022/12/20 12:31:54;;;;;;;1.00;1.00;;;18.90;35.90;;;;;;5002949;28;20525;-62
2022/12/20 12:34:34;;;;;;;1.30;1.20;;;18.80;35.70;;;;;;5004186;28;20502;-62
2022/12/20 12:37:25;;;;;;;1.17;1.07;;;18.90;35.80;;;;;;5000892;28;20476;-63
2022/12/20 12:40:09;;;;;;;1.20;1.10;;;18.80;35.70;;;;;;4999686;28;20460;-62
2022/12/20 12:42:53;;;;;;;1.30;1.13;;;18.90;35.90;;;;;;5000705;28;20569;-62
2022/12/20 12:45:25;;;;;;;1.20;1.10;;;18.90;35.80;;;;;;4999961;28;20432;-62
2022/12/20 12:47:56;;;;;;;1.30;1.20;;;18.80;35.70;;;;;;5005075;28;20462;-62
2022/12/20 12:50:26;;;;;;;1.20;1.10;;;18.90;35.90;;;;;;5002496;28;21167;-62
2022/12/20 12:52:56;;;;;;;1.30;1.20;;;18.80;35.90;;;;;;4991802;28;20442;-62
2022/12/20 12:55:43;;;;;;;1.30;1.20;;;18.90;35.80;;;;;;5005743;28;20966;-63
2022/12/20 12:58:24;;;;;;;1.30;1.20;;;18.90;35.90;;;;;;5004095;28;20562;-62
2022/12/20 13:00:57;;;;;;;1.13;1.03;;;18.90;35.80;;;;;;5003382;28;20971;-62
2022/12/20 13:03:44;;;;;;;1.20;1.10;;;18.90;35.90;;;;;;5010080;28;20653;-63
2022/12/20 13:06:22;;;;;;;1.07;1.00;;;18.80;35.70;;;;;;5004298;28;20903;-62
2022/12/20 13:09:09;;;;;;;1.20;1.13;;;18.90;35.80;;;;;;5005876;28;20558;-62
2022/12/20 13:11:37;;;;;;;1.40;1.23;;;18.90;35.90;;;;;;5013382;28;20469;-62
2022/12/20 13:14:31;;;;;;;1.30;1.20;;;18.90;35.80;;;;;;5014727;28;20527;-62